Time;durP1;ratioP1;P1;durP2;ratioP2;P2;SDS_P1;SDS_P2;PMS_P1;PMS_P2;Temp;Humidity;BMP_temperature;BMP_pressure;BME280_temperature;BME280_humidity;BME280_pressure;Samples;Min_cycle;Max_cycle;Signal;HPM_P1;HPM_P2
2022/03/27 00:01:01;;;;;;;2.03;1.50;;;;;;;13.36;48.80;102501.50;5212944;28;20543;-83
2022/03/27 00:03:32;;;;;;;1.33;1.23;;;;;;;13.30;48.39;102496.28;5213963;28;20033;-84
2022/03/27 00:06:03;;;;;;;1.08;1.08;;;;;;;13.33;48.65;102499.75;5217886;28;20025;-85
2022/03/27 00:08:33;;;;;;;3.50;2.53;;;;;;;13.27;48.77;102496.31;5197680;28;20037;-84
2022/03/27 00:14:04;;;;;;;2.70;1.42;;;;;;;13.20;50.71;102493.75;5195119;28;20052;-83
2022/03/27 00:16:35;;;;;;;1.40;1.10;;;;;;;13.12;51.10;102490.31;5214770;28;20063;-84
2022/03/27 00:19:06;;;;;;;2.85;1.98;;;;;;;12.81;52.47;102501.13;5229713;28;20025;-85
2022/03/27 00:21:38;;;;;;;1.02;1.02;;;;;;;13.04;50.62;102494.78;5195145;28;20300;-83
2022/03/27 00:24:09;;;;;;;1.27;1.17;;;;;;;13.12;50.18;102498.22;5234085;28;20048;-82
2022/03/27 00:26:40;;;;;;;1.63;1.52;;;;;;;13.13;49.74;102502.59;5184627;28;20072;-84
2022/03/27 00:29:11;;;;;;;1.10;1.05;;;;;;;13.12;49.61;102506.13;5187083;28;20033;-84
2022/03/27 00:31:41;;;;;;;1.58;1.48;;;;;;;13.09;49.59;102503.53;5219489;28;20029;-83
2022/03/27 00:34:12;;;;;;;1.85;1.65;;;;;;;13.10;49.67;102505.25;5200569;28;20051;-84
2022/03/27 00:36:42;;;;;;;1.95;1.38;;;;;;;13.05;49.76;102499.16;5202735;28;20029;-83
2022/03/27 00:39:13;;;;;;;0.45;0.45;;;;;;;13.03;49.66;102503.56;5214598;28;20052;-84
2022/03/27 00:41:43;;;;;;;0.93;0.93;;;;;;;13.10;50.20;102499.97;5201146;28;20037;-84
2022/03/27 00:44:14;;;;;;;1.08;1.08;;;;;;;13.10;50.07;102501.75;5196208;28;20041;-82
2022/03/27 00:46:44;;;;;;;1.83;1.67;;;;;;;13.06;49.76;102493.00;5182126;28;20032;-84
2022/03/27 00:49:15;;;;;;;3.17;2.65;;;;;;;13.04;49.67;102500.94;5181589;28;20040;-83
2022/03/27 00:51:46;;;;;;;0.63;0.63;;;;;;;13.00;50.03;102493.94;5222195;28;20053;-84
2022/03/27 00:54:16;;;;;;;0.70;0.70;;;;;;;12.99;50.13;102492.19;5203631;28;20218;-84
2022/03/27 00:56:47;;;;;;;1.70;1.60;;;;;;;12.97;49.63;102501.00;5222452;28;20056;-82
2022/03/27 00:59:17;;;;;;;1.63;1.52;;;;;;;12.93;50.04;102501.91;5204639;28;20044;-84
2022/03/27 01:01:48;;;;;;;1.13;1.00;;;;;;;12.94;50.33;102501.00;5200806;28;20032;-82
2022/03/27 01:04:19;;;;;;;1.00;1.00;;;;;;;12.90;49.90;102500.16;5234885;28;20188;-83
2022/03/27 01:06:49;;;;;;;1.20;1.10;;;;;;;12.87;50.21;102495.78;5217390;28;20025;-84
2022/03/27 01:09:35;;;;;;;1.10;1.05;;;;;;;12.83;50.45;102491.44;5182464;28;20051;-83
2022/03/27 01:12:18;;;;;;;0.95;0.95;;;;;;;12.81;50.01;102489.72;5200552;28;20064;-82
2022/03/27 01:14:53;;;;;;;1.10;1.02;;;;;;;12.69;50.69;102485.41;5202606;28;20333;-84
2022/03/27 01:17:26;;;;;;;1.55;1.45;;;;;;;12.69;50.99;102481.03;5202444;28;20036;-83
2022/03/27 01:19:56;;;;;;;3.83;1.42;;;;;;;12.69;50.79;102478.38;5199817;28;20045;-83
2022/03/27 01:22:27;;;;;;;3.25;1.25;;;;;;;12.69;51.05;102472.22;5218561;28;20261;-85
2022/03/27 01:24:57;;;;;;;1.42;1.33;;;;;;;12.69;51.21;102472.22;5199403;28;20041;-82
2022/03/27 01:27:30;;;;;;;2.72;1.05;;;;;;;12.58;51.47;102465.31;5214852;28;20033;-84
2022/03/27 01:30:00;;;;;;;1.30;1.20;;;;;;;12.48;51.94;102466.25;5211493;28;20072;-83
2022/03/27 01:32:31;;;;;;;1.15;1.15;;;;;;;12.47;52.03;102469.78;5213169;28;20030;-84
2022/03/27 01:35:01;;;;;;;1.10;1.10;;;;;;;12.50;51.67;102460.97;5216662;28;20112;-81
2022/03/27 01:37:32;;;;;;;0.65;0.65;;;;;;;12.56;51.19;102468.84;5216189;28;20041;-85
2022/03/27 01:40:03;;;;;;;0.93;0.93;;;;;;;12.56;51.63;102466.22;5196997;28;20034;-82
2022/03/27 01:42:34;;;;;;;1.02;0.95;;;;;;;12.58;51.54;102459.16;5200615;28;20044;-83
2022/03/27 01:45:05;;;;;;;1.17;1.13;;;;;;;12.60;51.83;102454.75;5215682;28;20564;-83
2022/03/27 01:47:37;;;;;;;0.93;0.93;;;;;;;12.51;51.52;102455.72;5199996;28;20037;-85
2022/03/27 01:50:08;;;;;;;0.57;0.57;;;;;;;12.46;51.54;102454.84;5183197;28;20622;-82
2022/03/27 01:52:39;;;;;;;0.77;0.77;;;;;;;12.49;51.67;102453.94;5216100;28;20124;-83
2022/03/27 01:55:13;;;;;;;1.85;1.15;;;;;;;12.48;51.77;102461.00;5215635;28;20453;-84
2022/03/27 01:57:44;;;;;;;0.75;0.75;;;;;;;12.51;52.00;102463.63;5219299;28;20283;-85
2022/03/27 02:00:15;;;;;;;1.40;1.30;;;;;;;12.51;51.77;102452.19;5206418;28;20045;-83
2022/03/27 02:02:46;;;;;;;1.20;1.15;;;;;;;12.44;52.04;102456.63;5222672;28;20040;-85
2022/03/27 02:05:16;;;;;;;0.65;0.65;;;;;;;12.46;52.12;102456.63;5188452;28;20064;-83
2022/03/27 02:07:47;;;;;;;1.92;1.80;;;;;;;12.42;52.22;102456.63;5181959;28;20029;-83
2022/03/27 02:10:18;;;;;;;1.73;0.90;;;;;;;12.42;52.47;102463.69;5206596;28;20516;-84
2022/03/27 02:12:48;;;;;;;0.73;0.73;;;;;;;12.37;51.76;102461.06;5203941;28;20044;-84
2022/03/27 02:15:19;;;;;;;0.98;0.98;;;;;;;12.38;52.11;102457.56;5205748;28;20283;-84
2022/03/27 02:17:50;;;;;;;1.45;1.35;;;;;;;12.38;51.90;102456.66;5222164;28;20111;-83
2022/03/27 02:20:20;;;;;;;0.40;0.40;;;;;;;12.28;52.10;102458.50;5220817;28;20104;-85
2022/03/27 02:22:51;;;;;;;1.83;1.67;;;;;;;12.28;52.05;102454.09;5189040;28;20033;-82
2022/03/27 02:25:22;;;;;;;2.47;1.60;;;;;;;12.23;52.77;102458.53;5185673;28;20088;-83
2022/03/27 02:27:52;;;;;;;0.85;0.85;;;;;;;12.17;52.25;102458.56;5221358;28;20033;-84
2022/03/27 02:30:23;;;;;;;1.23;1.20;;;;;;;12.16;52.18;102451.56;5199849;28;20100;-82
2022/03/27 02:32:54;;;;;;;0.98;0.90;;;;;;;12.18;53.33;102454.16;5234360;28;20056;-83
2022/03/27 02:35:24;;;;;;;1.35;1.25;;;;;;;12.14;52.83;102452.44;5225313;28;20452;-83
2022/03/27 02:37:55;;;;;;;1.88;1.70;;;;;;;12.16;53.32;102454.19;5192391;28;20091;-84
2022/03/27 02:40:28;;;;;;;1.42;1.25;;;;;;;12.00;53.68;102448.13;5219401;28;20037;-85
2022/03/27 02:43:01;;;;;;;1.80;1.17;;;;;;;12.02;53.88;102458.66;5206351;28;20021;-84
2022/03/27 02:45:32;;;;;;;0.30;0.30;;;;;;;11.92;54.09;102457.78;5197648;28;20045;-84
2022/03/27 02:48:05;;;;;;;0.60;0.60;;;;;;;11.98;53.83;102457.81;5217179;28;20026;-81
2022/03/27 02:50:38;;;;;;;1.73;1.63;;;;;;;12.00;53.65;102452.53;5232133;28;20051;-83
2022/03/27 02:53:11;;;;;;;1.75;1.02;;;;;;;11.88;54.20;102451.66;5204594;28;20029;-84
2022/03/27 02:55:41;;;;;;;1.50;1.42;;;;;;;11.88;54.34;102446.41;5203895;28;20044;-85
2022/03/27 02:58:12;;;;;;;1.35;0.95;;;;;;;11.75;55.05;102455.25;5204020;28;20552;-82
2022/03/27 03:00:42;;;;;;;0.73;0.73;;;;;;;11.87;54.57;102452.53;5220486;28;20056;-85
2022/03/27 03:03:13;;;;;;;0.40;0.40;;;;;;;11.81;54.72;102453.47;5227222;28;20124;-84
2022/03/27 03:05:44;;;;;;;1.48;1.00;;;;;;;11.89;54.33;102447.28;5238930;28;20060;-84
2022/03/27 03:08:17;;;;;;;0.95;0.93;;;;;;;11.90;54.53;102449.91;5220916;28;20029;-81
2022/03/27 03:10:47;;;;;;;0.65;0.65;;;;;;;11.85;54.43;102445.53;5209297;28;20131;-83
2022/03/27 03:13:18;;;;;;;2.72;2.30;;;;;;;11.78;54.21;102456.09;5204824;28;20033;-85
2022/03/27 03:15:50;;;;;;;4.70;2.15;;;;;;;11.79;54.01;102446.44;5222653;28;20029;-84
2022/03/27 03:18:21;;;;;;;0.80;0.80;;;;;;;11.76;54.01;102452.59;5192487;28;20037;-84
2022/03/27 03:20:51;;;;;;;0.93;0.93;;;;;;;11.82;55.15;102455.19;5228004;28;20021;-83
2022/03/27 03:23:22;;;;;;;1.35;1.25;;;;;;;11.76;54.76;102451.72;5205168;28;20466;-85
2022/03/27 03:25:52;;;;;;;0.60;0.60;;;;;;;11.74;54.66;102446.47;5239341;28;20036;-85
2022/03/27 03:28:23;;;;;;;1.15;1.13;;;;;;;11.72;54.46;102442.97;5225477;28;20029;-83
2022/03/27 03:30:54;;;;;;;6.07;1.15;;;;;;;11.72;54.42;102448.25;5207399;28;20029;-84
2022/03/27 03:33:26;;;;;;;1.05;1.02;;;;;;;11.69;54.36;102439.50;5204139;28;20497;-82
2022/03/27 03:35:56;;;;;;;0.82;0.57;;;;;;;11.72;54.90;102439.47;5204447;28;20029;-83
2022/03/27 03:38:27;;;;;;;2.13;1.08;;;;;;;11.69;54.97;102435.09;5184895;28;20609;-81
2022/03/27 03:40:57;;;;;;;0.70;0.70;;;;;;;11.59;54.83;102436.91;5219322;28;20488;-85
2022/03/27 03:43:28;;;;;;;0.98;0.95;;;;;;;11.68;55.27;102437.75;5220857;28;20060;-84
2022/03/27 03:45:58;;;;;;;1.55;1.45;;;;;;;11.63;54.44;102441.25;5185837;28;20072;-83
2022/03/27 03:48:29;;;;;;;1.08;0.98;;;;;;;11.62;54.86;102450.00;5177844;28;20026;-82
2022/03/27 03:51:00;;;;;;;2.33;2.13;;;;;;;11.62;55.04;102449.16;5194931;28;20478;-83
2022/03/27 03:53:30;;;;;;;1.27;1.25;;;;;;;11.54;54.97;102449.16;5210107;28;20044;-83
2022/03/27 03:56:01;;;;;;;1.02;1.02;;;;;;;11.59;55.22;102444.78;5213875;28;20036;-82
2022/03/27 03:58:32;;;;;;;1.65;1.55;;;;;;;11.58;55.13;102444.78;5197869;28;20025;-85
2022/03/27 04:01:03;;;;;;;2.92;2.60;;;;;;;11.52;55.91;102435.19;5232410;28;20028;-85
2022/03/27 04:03:34;;;;;;;1.40;0.98;;;;;;;11.52;55.70;102442.16;5229184;28;20115;-85
2022/03/27 04:06:05;;;;;;;0.68;0.65;;;;;;;11.50;55.42;102444.81;5225571;28;20635;-84
2022/03/27 04:08:36;;;;;;;1.42;1.33;;;;;;;11.39;56.36;102442.22;5220924;28;20041;-84
2022/03/27 04:11:06;;;;;;;3.53;1.55;;;;;;;11.45;56.09;102436.06;5205051;28;20025;-84
2022/03/27 04:13:40;;;;;;;1.00;1.00;;;;;;;11.30;57.08;102437.84;5202940;28;20044;-84
2022/03/27 04:16:14;;;;;;;0.75;0.75;;;;;;;11.29;57.43;102443.97;5220871;28;20072;-82
2022/03/27 04:18:45;;;;;;;0.70;0.70;;;;;;;11.25;56.81;102439.63;5205384;28;20174;-84
2022/03/27 04:21:16;;;;;;;0.73;0.73;;;;;;;11.29;56.09;102440.50;5205548;28;20041;-83
2022/03/27 04:23:46;;;;;;;1.55;1.45;;;;;;;11.24;57.82;102442.28;5203569;28;20062;-83
2022/03/27 04:26:17;;;;;;;1.70;1.60;;;;;;;11.27;56.64;102439.63;5202915;28;20610;-84
2022/03/27 04:28:48;;;;;;;1.00;1.00;;;;;;;11.29;56.43;102443.97;5201889;28;20089;-83
2022/03/27 04:31:18;;;;;;;1.05;1.05;;;;;;;11.33;56.48;102445.75;5234482;28;20044;-83
2022/03/27 04:33:49;;;;;;;1.20;1.20;;;;;;;11.31;56.23;102444.84;5202346;28;20638;-83
2022/03/27 04:36:19;;;;;;;0.75;0.75;;;;;;;11.35;57.04;102445.72;5220038;28;20032;-82
2022/03/27 04:38:50;;;;;;;0.68;0.68;;;;;;;11.32;56.71;102446.63;5213009;28;20471;-82
2022/03/27 04:41:20;;;;;;;0.30;0.30;;;;;;;11.30;56.49;102445.72;5211849;28;20931;-82
2022/03/27 04:43:51;;;;;;;3.78;1.95;;;;;;;11.27;55.99;102452.75;5213921;28;20096;-84
2022/03/27 04:46:21;;;;;;;0.80;0.80;;;;;;;11.24;56.38;102458.03;5199339;28;20075;-84
2022/03/27 04:48:52;;;;;;;2.22;1.75;;;;;;;11.22;56.56;102459.78;5224388;28;20090;-85
2022/03/27 04:51:23;;;;;;;0.88;0.88;;;;;;;11.12;57.44;102458.91;5206150;28;20197;-85
2022/03/27 04:53:53;;;;;;;0.65;0.43;;;;;;;11.14;56.41;102462.41;5219550;28;20059;-83
2022/03/27 04:56:24;;;;;;;2.42;1.33;;;;;;;11.09;56.99;102466.81;5219228;28;20056;-82
2022/03/27 04:58:55;;;;;;;1.67;1.58;;;;;;;11.10;57.02;102463.31;5210341;28;20045;-84
2022/03/27 05:01:25;;;;;;;4.88;1.90;;;;;;;11.09;56.55;102466.81;5201106;28;20037;-83
2022/03/27 05:03:55;;;;;;;0.70;0.63;;;;;;;10.95;60.14;102467.66;5202007;28;20029;-82
2022/03/27 05:06:26;;;;;;;1.35;1.25;;;;;;;10.86;57.70;102472.97;5221486;28;20070;-84
2022/03/27 05:09:00;;;;;;;0.70;0.70;;;;;;;10.92;58.23;102472.06;5217327;28;20033;-84
2022/03/27 05:11:30;;;;;;;0.93;0.85;;;;;;;10.89;57.29;102472.94;5201206;28;20051;-85
2022/03/27 05:14:01;;;;;;;1.15;1.13;;;;;;;10.72;60.95;102480.81;5199846;28;20040;-84
2022/03/27 05:16:32;;;;;;;0.75;0.75;;;;;;;10.71;59.00;102469.44;5198279;28;20124;-84
2022/03/27 05:19:04;;;;;;;1.70;1.60;;;;;;;10.75;58.04;102470.31;5209226;28;20112;-82
2022/03/27 05:21:35;;;;;;;1.40;1.33;;;;;;;10.76;61.33;102473.81;5197392;28;20048;-84
2022/03/27 05:24:08;;;;;;;1.40;1.30;;;;;;;10.53;60.96;102469.44;5240752;22;21296;-80
2022/03/27 05:26:39;;;;;;;0.80;0.80;;;;;;;10.58;62.29;102474.69;5202459;28;20109;-78
2022/03/27 05:29:10;;;;;;;2.25;1.83;;;;;;;10.58;60.38;102480.81;5221294;28;20349;-78
2022/03/27 05:31:41;;;;;;;3.00;2.33;;;;;;;10.68;62.61;102477.31;5208292;28;20033;-80
2022/03/27 05:34:11;;;;;;;3.75;3.40;;;;;;;10.48;62.34;102481.66;5208428;28;20052;-78
2022/03/27 05:36:42;;;;;;;2.28;1.45;;;;;;;10.56;60.88;102485.16;5194500;28;20136;-79
2022/03/27 05:39:15;;;;;;;3.92;2.25;;;;;;;10.61;61.38;102472.94;5175836;28;20479;-79
2022/03/27 05:41:45;;;;;;;;;;;;;;;10.65;59.88;102476.44;5177330;28;20033;-79
2022/03/27 05:44:16;;;;;;;2.85;1.33;;;;;;;10.57;62.25;102481.69;5224164;28;19969;-78
2022/03/27 05:46:46;;;;;;;1.27;1.27;;;;;;;10.61;61.82;102483.44;5210316;28;20025;-80
2022/03/27 05:49:17;;;;;;;3.53;3.15;;;;;;;10.65;62.08;102484.31;5223309;28;20033;-78
2022/03/27 05:51:47;;;;;;;1.83;1.73;;;;;;;10.59;62.01;102484.28;5209710;28;20377;-78
2022/03/27 05:54:18;;;;;;;1.98;1.85;;;;;;;10.68;60.82;102490.44;5208600;28;20085;-78
2022/03/27 05:56:48;;;;;;;1.48;1.38;;;;;;;10.66;62.10;102491.34;5176741;28;20260;-80
2022/03/27 05:59:19;;;;;;;3.05;2.70;;;;;;;10.55;65.10;102494.81;5191962;28;20045;-78
2022/03/27 06:01:52;;;;;;;5.68;2.97;;;;;;;10.55;63.64;102492.19;5211645;28;20029;-79
2022/03/27 06:04:22;;;;;;;3.72;3.05;;;;;;;10.60;65.94;102502.69;5207292;28;20122;-79
2022/03/27 06:06:53;;;;;;;1.98;1.88;;;;;;;10.49;65.67;102499.16;5211997;28;20111;-78
2022/03/27 06:09:23;;;;;;;1.08;1.08;;;;;;;10.41;65.97;102507.03;5207594;28;20033;-80
2022/03/27 06:11:54;;;;;;;1.10;1.10;;;;;;;10.54;66.80;102505.28;5209894;28;20036;-78
2022/03/27 06:14:25;;;;;;;2.75;2.53;;;;;;;10.45;68.60;102514.03;5209194;28;20041;-79
2022/03/27 06:16:56;;;;;;;3.80;3.45;;;;;;;10.59;65.26;102518.41;5209714;28;20341;-78
2022/03/27 06:19:30;;;;;;;3.28;3.03;;;;;;;10.39;70.99;102520.13;5180967;28;20099;-79
2022/03/27 06:22:01;;;;;;;2.33;2.15;;;;;;;10.35;70.77;102523.59;5194587;28;20036;-79
2022/03/27 06:24:32;;;;;;;3.33;2.75;;;;;;;10.45;67.54;102515.78;5210107;28;20110;-79
2022/03/27 06:27:03;;;;;;;4.13;3.03;;;;;;;10.52;65.87;102521.03;5191396;28;20044;-79
2022/03/27 06:29:33;;;;;;;1.05;1.05;;;;;;;10.58;68.29;102520.19;5210776;28;20556;-79
2022/03/27 06:32:04;;;;;;;4.03;2.90;;;;;;;10.47;68.76;102521.91;5209620;28;20053;-79
2022/03/27 06:34:35;;;;;;;1.20;1.20;;;;;;;10.46;69.91;102530.63;5191374;28;20259;-77
2022/03/27 06:37:05;;;;;;;7.15;3.40;;;;;;;10.50;69.51;102524.53;5208334;28;20397;-77
2022/03/27 06:39:36;;;;;;;2.58;2.38;;;;;;;10.54;69.74;102526.28;5206652;28;20528;-80
2022/03/27 06:42:07;;;;;;;3.13;2.83;;;;;;;10.20;73.46;102524.44;5191814;28;20044;-78
2022/03/27 06:44:38;;;;;;;1.75;1.58;;;;;;;10.27;72.93;102527.97;5207740;28;20049;-79
2022/03/27 06:47:09;;;;;;;2.17;2.08;;;;;;;10.50;68.26;102527.16;5208526;28;20508;-79
2022/03/27 06:49:40;;;;;;;3.17;2.28;;;;;;;10.48;70.54;102527.16;5205429;28;20053;-79
2022/03/27 06:52:11;;;;;;;6.80;3.22;;;;;;;10.53;69.13;102521.94;5208425;28;20032;-78
2022/03/27 06:54:42;;;;;;;2.28;2.08;;;;;;;10.74;68.58;102525.44;5193544;28;20034;-79
2022/03/27 06:57:14;;;;;;;2.88;2.38;;;;;;;10.65;68.49;102528.97;5209922;28;20552;-79
2022/03/27 07:05:23;;;;;;;2.22;2.05;;;;;;;10.47;73.24;102530.66;5193769;28;20049;-80
2022/03/27 07:07:53;;;;;;;1.83;1.70;;;;;;;10.48;73.26;102534.16;5211695;28;20052;-79
2022/03/27 07:10:25;;;;;;;14.25;2.13;;;;;;;10.69;69.67;102523.72;5212650;28;20059;-80
2022/03/27 07:12:56;;;;;;;2.08;1.98;;;;;;;10.74;68.64;102525.44;5212132;28;20035;-79
2022/03/27 07:15:27;;;;;;;2.50;2.08;;;;;;;10.75;70.29;102530.69;5208990;28;20400;-79
2022/03/27 07:17:59;;;;;;;3.47;3.15;;;;;;;10.74;69.31;102528.06;5224413;28;20467;-79
2022/03/27 07:20:32;;;;;;;2.00;1.90;;;;;;;10.80;67.83;102525.44;5206459;28;20049;-80
2022/03/27 07:23:05;;;;;;;2.15;2.03;;;;;;;10.86;68.08;102525.47;5208747;28;20489;-79
2022/03/27 07:25:38;;;;;;;5.40;3.45;;;;;;;10.97;68.15;102520.22;5204772;28;20049;-78
2022/03/27 07:28:10;;;;;;;2.10;1.88;;;;;;;10.99;70.08;102516.72;5223842;28;20051;-79
2022/03/27 07:30:43;;;;;;;0.82;0.82;;;;;;;10.67;73.73;102525.44;5206504;28;20106;-79
2022/03/27 07:33:14;;;;;;;;;;;;;;;10.72;72.30;102522.84;5191477;28;20079;-79
2022/03/27 07:35:45;;;;;;;2.72;1.45;;;;;;;10.90;68.45;102524.59;5207653;28;20434;-79
2022/03/27 07:38:16;;;;;;;6.13;2.13;;;;;;;11.13;68.55;102524.59;5190639;28;20045;-79
2022/03/27 07:40:47;;;;;;;1.75;1.55;;;;;;;11.05;71.36;102528.09;5189628;28;20048;-79
2022/03/27 07:43:18;;;;;;;2.83;1.83;;;;;;;11.14;69.89;102525.47;5208452;28;20033;-79
2022/03/27 07:45:49;;;;;;;2.30;2.20;;;;;;;10.99;72.52;102534.25;5192949;28;20083;-79
2022/03/27 07:48:19;;;;;;;11.63;2.70;;;;;;;11.19;71.02;102534.25;5207888;28;20466;-80
2022/03/27 07:50:54;;;;;;;2.92;2.53;;;;;;;11.10;72.86;102537.72;5210822;28;20053;-80
2022/03/27 07:53:24;;;;;;;1.42;1.33;;;;;;;10.64;75.69;102541.19;5223053;28;20025;-79
2022/03/27 07:55:55;;;;;;;1.77;1.63;;;;;;;10.74;74.58;102541.19;5208672;28;20021;-79
2022/03/27 07:58:28;;;;;;;4.80;2.05;;;;;;;10.87;72.80;102540.34;5190752;28;20029;-79
2022/03/27 08:00:59;;;;;;;1.75;1.65;;;;;;;10.89;73.80;102541.22;5210046;28;20037;-79
2022/03/27 08:03:29;;;;;;;1.67;1.58;;;;;;;11.01;73.07;102542.97;5208148;28;20033;-79
2022/03/27 08:06:00;;;;;;;3.15;1.95;;;;;;;11.20;71.08;102535.97;5194098;28;20063;-79
2022/03/27 08:08:31;;;;;;;6.40;2.28;;;;;;;10.73;74.81;102542.97;5215536;28;20033;-80
2022/03/27 08:11:02;;;;;;;0.85;0.85;;;;;;;10.89;73.71;102541.22;5212723;28;20436;-80
2022/03/27 08:13:32;;;;;;;2.08;1.88;;;;;;;11.11;70.55;102542.09;5212541;28;20627;-80
2022/03/27 08:16:03;;;;;;;2.78;1.75;;;;;;;11.07;70.50;102540.38;5213292;28;20041;-79
2022/03/27 08:18:34;;;;;;;1.42;1.38;;;;;;;11.16;70.06;102540.34;5194988;28;20040;-79
2022/03/27 08:21:04;;;;;;;2.45;2.25;;;;;;;11.01;73.69;102538.63;5211729;28;20049;-80
2022/03/27 08:23:35;;;;;;;1.00;0.98;;;;;;;11.15;70.06;102529.84;5208841;28;20037;-79
2022/03/27 08:28:55;;;;;;;1.90;1.80;;;;;;;11.40;70.13;102538.59;5212575;28;20464;-80
2022/03/27 08:31:25;;;;;;;2.38;2.17;;;;;;;11.18;71.07;102527.22;5196732;28;20036;-80
2022/03/27 08:33:57;;;;;;;1.60;1.33;;;;;;;11.47;70.71;102526.28;5213239;28;20071;-80
2022/03/27 08:36:27;;;;;;;2.75;2.22;;;;;;;11.41;69.68;102523.69;5207289;28;20485;-79
2022/03/27 08:38:58;;;;;;;3.97;1.52;;;;;;;11.47;69.31;102521.03;5208724;28;20051;-78
2022/03/27 08:41:28;;;;;;;2.55;2.30;;;;;;;11.59;67.64;102522.75;5216220;28;20025;-80
2022/03/27 08:43:59;;;;;;;3.00;2.72;;;;;;;11.67;67.78;102528.88;5182167;28;20136;-80
2022/03/27 08:46:32;;;;;;;3.25;2.50;;;;;;;11.67;68.63;102525.38;5215604;28;20029;-80
2022/03/27 08:49:11;;;;;;;2.15;1.95;;;;;;;11.64;71.42;102527.13;5196824;28;20406;-79
2022/03/27 08:51:54;;;;;;;2.60;2.25;;;;;;;11.68;69.36;102527.13;5210446;28;20039;-79
2022/03/27 08:54:28;;;;;;;1.65;1.55;;;;;;;11.89;66.89;102526.19;5227796;28;20574;-80
2022/03/27 08:57:17;;;;;;;2.88;2.65;;;;;;;11.75;69.98;102523.59;5177144;28;20064;-79
2022/03/27 08:59:51;;;;;;;2.35;2.25;;;;;;;11.80;69.56;102525.34;5188839;28;20069;-80
2022/03/27 09:02:25;;;;;;;2.95;1.80;;;;;;;11.93;67.40;102526.19;5190889;28;20032;-80
2022/03/27 09:04:57;;;;;;;1.85;1.73;;;;;;;12.11;67.13;102527.88;5206641;28;20045;-80
2022/03/27 09:07:28;;;;;;;4.53;4.10;;;;;;;12.11;68.33;102527.00;5190557;28;20378;-81
2022/03/27 09:10:06;;;;;;;2.03;1.92;;;;;;;12.15;66.94;102534.00;5205351;28;20048;-80
2022/03/27 09:12:36;;;;;;;3.65;3.22;;;;;;;12.21;67.45;102538.38;5210698;28;20040;-80
2022/03/27 09:15:08;;;;;;;2.65;2.45;;;;;;;12.24;66.93;102530.44;5175366;28;20037;-80
2022/03/27 09:17:59;;;;;;;5.60;2.65;;;;;;;12.28;67.30;102538.31;5224252;28;20029;-81
2022/03/27 09:20:37;;;;;;;3.20;2.47;;;;;;;12.34;66.77;102533.91;5188513;28;20044;-78
2022/03/27 09:23:12;;;;;;;2.80;2.60;;;;;;;12.26;67.63;102542.75;5203650;28;20053;-79
2022/03/27 09:25:44;;;;;;;3.80;2.70;;;;;;;12.23;68.53;102540.09;5192341;28;20170;-79
2022/03/27 09:28:39;;;;;;;2.03;1.88;;;;;;;12.32;68.78;102544.44;5177022;28;20036;-79
2022/03/27 09:31:18;;;;;;;3.78;3.47;;;;;;;12.35;67.23;102538.31;5209121;28;20048;-79
2022/03/27 09:33:52;;;;;;;2.53;2.33;;;;;;;12.43;67.74;102539.13;5206294;28;20064;-80
2022/03/27 09:36:32;;;;;;;2.22;2.13;;;;;;;12.23;70.02;102536.63;5188228;28;20033;-78
2022/03/27 09:39:16;;;;;;;9.07;2.33;;;;;;;12.37;67.95;102540.03;5191476;28;20056;-79
2022/03/27 09:41:51;;;;;;;2.90;2.70;;;;;;;12.26;69.85;102542.75;5190120;28;20025;-78
2022/03/27 09:44:23;;;;;;;6.65;3.90;;;;;;;12.56;67.38;102535.53;5189293;28;20265;-79
2022/03/27 09:47:01;;;;;;;1.70;1.63;;;;;;;12.58;66.73;102536.41;5224506;28;20115;-79
2022/03/27 09:49:31;;;;;;;3.28;3.05;;;;;;;12.47;69.83;102530.31;5173047;28;20041;-79
2022/03/27 09:52:12;;;;;;;1.85;1.75;;;;;;;12.54;68.92;102536.44;5173240;28;20035;-79
2022/03/27 09:54:58;;;;;;;2.00;1.83;;;;;;;12.68;67.81;102521.41;5203719;28;20068;-79
2022/03/27 09:57:30;;;;;;;1.63;1.52;;;;;;;12.83;67.47;102523.06;5189210;28;20033;-78
2022/03/27 10:00:14;;;;;;;2.53;2.33;;;;;;;12.73;67.89;102522.25;5187884;28;20056;-79
2022/03/27 10:02:45;;;;;;;2.67;2.03;;;;;;;12.83;67.01;102515.16;5187740;28;20041;-79
2022/03/27 10:05:21;;;;;;;4.30;2.38;;;;;;;12.85;68.21;102515.13;5187463;28;20036;-79
2022/03/27 10:07:54;;;;;;;5.53;2.60;;;;;;;12.72;69.61;102511.72;5205011;28;20328;-79
2022/03/27 10:10:26;;;;;;;2.60;2.15;;;;;;;13.01;67.15;102516.75;5203835;28;20083;-80
2022/03/27 10:12:58;;;;;;;2.83;1.67;;;;;;;12.79;68.91;102500.25;5203072;28;20040;-80
2022/03/27 10:15:30;;;;;;;5.07;2.63;;;;;;;12.72;69.16;102504.72;5186976;28;20049;-79
2022/03/27 10:18:09;;;;;;;7.57;3.42;;;;;;;12.74;69.72;102507.31;5190780;28;20040;-79
2022/03/27 10:20:40;;;;;;;1.90;1.63;;;;;;;12.82;68.66;102501.97;5210423;28;20029;-81
2022/03/27 10:23:27;;;;;;;2.10;1.95;;;;;;;12.95;67.99;102501.00;5211922;28;20650;-80
2022/03/27 10:26:03;;;;;;;2.78;2.58;;;;;;;13.05;67.02;102499.16;5193775;28;20103;-80
2022/03/27 10:28:34;;;;;;;1.55;1.48;;;;;;;13.02;68.52;102497.44;5212823;28;20032;-80
2022/03/27 10:31:06;;;;;;;3.08;2.88;;;;;;;12.86;68.82;102490.56;5212965;28;20029;-79
2022/03/27 10:33:37;;;;;;;2.88;2.67;;;;;;;13.06;68.07;102493.00;5213088;28;20037;-79
2022/03/27 10:36:17;;;;;;;2.38;2.20;;;;;;;13.06;69.61;102490.38;5210005;28;20047;-78
2022/03/27 10:39:10;;;;;;;3.17;2.35;;;;;;;13.11;68.42;102485.06;5195450;28;20099;-77
2022/03/27 10:41:45;;;;;;;1.95;1.85;;;;;;;13.13;68.50;102480.66;5224970;28;20037;-78
2022/03/27 10:44:44;;;;;;;3.33;2.85;;;;;;;13.37;67.84;102482.16;5192916;28;20094;-78
2022/03/27 10:47:20;;;;;;;2.15;2.05;;;;;;;13.34;68.75;102479.56;5225072;28;20041;-78
2022/03/27 10:50:05;;;;;;;2.22;2.05;;;;;;;13.37;67.63;102477.78;5172721;28;20038;-78
2022/03/27 10:52:42;;;;;;;1.52;0.93;;;;;;;13.20;68.76;102472.66;5194621;28;20083;-79
2022/03/27 10:55:16;;;;;;;2.15;1.95;;;;;;;13.40;67.88;102465.47;5191037;28;20076;-78
2022/03/27 10:57:51;;;;;;;1.88;1.55;;;;;;;13.35;67.09;102473.38;5213653;28;20035;-80
2022/03/27 11:00:37;;;;;;;3.35;1.88;;;;;;;13.45;67.34;102459.25;5209010;28;20280;-80
2022/03/27 11:03:08;;;;;;;0.98;0.98;;;;;;;13.43;66.98;102455.75;5213629;28;20039;-79
2022/03/27 11:05:40;;;;;;;2.58;2.38;;;;;;;13.47;66.94;102452.19;5214370;28;20049;-79
2022/03/27 11:08:17;;;;;;;2.10;1.98;;;;;;;13.58;66.91;102459.13;5211677;28;20033;-80
2022/03/27 11:10:59;;;;;;;3.10;2.85;;;;;;;13.63;67.20;102452.91;5190272;28;20044;-80
2022/03/27 11:13:32;;;;;;;1.70;1.30;;;;;;;13.63;66.95;102452.91;5214465;28;20489;-80
2022/03/27 11:16:02;;;;;;;3.17;2.88;;;;;;;13.68;66.27;102455.44;5212854;28;20059;-80
2022/03/27 11:18:43;;;;;;;2.92;1.73;;;;;;;13.65;66.68;102445.81;5182061;28;20042;-79
2022/03/27 11:21:29;;;;;;;3.03;2.78;;;;;;;13.69;66.73;102444.00;5215349;28;20032;-81
2022/03/27 11:24:02;;;;;;;2.10;2.00;;;;;;;13.81;66.47;102443.88;5237401;22;20044;-78
2022/03/27 11:26:34;;;;;;;2.70;2.50;;;;;;;13.77;66.39;102433.38;5185410;28;20444;-78
2022/03/27 11:29:10;;;;;;;4.15;3.25;;;;;;;13.91;66.92;102435.84;5187232;28;20068;-78
2022/03/27 11:31:41;;;;;;;3.33;2.60;;;;;;;13.96;65.93;102441.91;5201554;28;20358;-78
2022/03/27 11:34:12;;;;;;;2.60;2.08;;;;;;;14.08;65.46;102439.13;5182091;28;20049;-78
2022/03/27 11:37:22;;;;;;;1.50;1.40;;;;;;;14.08;65.14;102432.94;5182939;28;20038;-79
2022/03/27 11:39:53;;;;;;;1.70;1.60;;;;;;;14.17;65.52;102432.81;5181205;28;20521;-77
2022/03/27 11:42:28;;;;;;;4.90;2.80;;;;;;;14.15;64.64;102424.03;5183915;28;20039;-78
2022/03/27 11:45:20;;;;;;;2.08;1.98;;;;;;;14.15;65.22;102424.03;5183390;28;20521;-78
2022/03/27 11:47:55;;;;;;;2.05;1.95;;;;;;;14.21;64.42;102429.25;5167115;28;20034;-78
2022/03/27 11:50:29;;;;;;;3.38;2.50;;;;;;;14.35;64.44;102421.09;5167138;28;20046;-78
2022/03/27 11:53:02;;;;;;;3.33;2.75;;;;;;;14.46;63.80;102413.88;5183135;28;20694;-78
2022/03/27 11:55:34;;;;;;;;;;;;;;;14.50;63.64;102421.78;5197314;28;20357;-78
2022/03/27 11:58:07;;;;;;;3.22;2.50;;;;;;;14.64;63.19;102417.13;5165628;28;19913;-79
2022/03/27 12:00:42;;;;;;;;;;;;;;;14.70;63.46;102418.81;5179362;28;20107;-79
2022/03/27 12:03:13;;;;;;;2.13;2.03;;;;;;;14.89;62.58;102420.22;5184998;28;19966;-78